»·PEaware :: USA2313 KRDD-KSFO

USA2313 :: KRDD-KSFO

FLIGHT INFORMATION

Flight Status: Arrived
Operator:
US Airways
More flights by this operator :: More flights under this callsign
Pilot: Walter P. (10403)
Aircraft: BOEING 737-200
(B732)
More flights by this aircraft type
Origin: KRDD Redding Mun
United States
Destination: KSFO San Francisco Intl
United States
More flights between these airports :: More routes between these airports
Route: + PYE GOLDN7
File this flight plan on PilotEdge
Remarks:
Altitude:
(Current/Filed)
25,000ft
Speed:
(Current/Filed)
440kts
Departed: 09-Oct-18 06:26 PM
Arrived: 09-Oct-18 07:16 PM
Distance/Time
Traveled:
173nm/0:50
Distance/Time
To Go:
Arrived

Flight Plot

Page will automatically refresh every two minutes.

Flight plan parsing failed; only flown route is shown


Map Options




Map Legend


Flown Route
Filed Route
Departure Airport
Arrival Airport
Navaid (VOR, NDB)
Fix

Horizontal Profiles

Position Reports

Time Latitude Longitude Heading Altitude Ground
Speed
09-Oct-18 17:54 40.505362 -122.298996 314 466ft 0kts
09-Oct-18 17:55 40.505362 -122.298996 314 466ft 0kts
09-Oct-18 17:56 40.505362 -122.298996 314 466ft 0kts
09-Oct-18 17:57 40.505362 -122.298996 314 466ft 0kts
09-Oct-18 17:58 40.505362 -122.298996 314 466ft 0kts
09-Oct-18 17:59 40.505362 -122.298996 314 466ft 0kts
09-Oct-18 18:00 40.505362 -122.298996 314 466ft 0kts
09-Oct-18 18:01 40.505362 -122.298996 314 466ft 0kts
09-Oct-18 18:02 40.505362 -122.298996 314 466ft 0kts
09-Oct-18 18:03 40.505362 -122.298996 314 466ft 0kts
09-Oct-18 18:04 40.505362 -122.298996 314 466ft 0kts
09-Oct-18 18:05 40.505362 -122.298996 314 466ft 0kts
09-Oct-18 18:06 40.505362 -122.298996 314 466ft 0kts
09-Oct-18 18:07 40.505362 -122.298996 314 466ft 0kts
09-Oct-18 18:08 40.505362 -122.298996 314 466ft 0kts
09-Oct-18 18:09 40.505362 -122.298996 314 466ft 0kts
09-Oct-18 18:10 40.505362 -122.298996 314 466ft 0kts
09-Oct-18 18:11 40.505362 -122.298996 314 466ft 0kts
09-Oct-18 18:12 40.505362 -122.298996 314 466ft 0kts
09-Oct-18 18:13 40.505362 -122.298996 314 466ft 0kts
09-Oct-18 18:14 40.505362 -122.298996 314 466ft 0kts
09-Oct-18 18:15 40.505362 -122.298996 314 466ft 0kts
09-Oct-18 18:16 40.505362 -122.298996 314 466ft 0kts
09-Oct-18 18:17 40.505362 -122.298996 314 466ft 0kts
09-Oct-18 18:18 40.505362 -122.298996 314 466ft 0kts
09-Oct-18 18:19 40.505362 -122.298996 314 466ft 0kts
09-Oct-18 18:20 40.505362 -122.298996 314 466ft 0kts
09-Oct-18 18:21 40.505361 -122.298996 314 466ft 0kts
09-Oct-18 18:22 40.505215 -122.298401 249 466ft 2kts
09-Oct-18 18:23 40.505259 -122.298286 241 466ft 0kts
09-Oct-18 18:24 40.505259 -122.298286 241 466ft 0kts
09-Oct-18 18:25 40.505259 -122.298286 241 466ft 0kts
09-Oct-18 18:26 40.503695 -122.298111 165 466ft 13kts
09-Oct-18 18:27 40.501603 -122.295579 134 466ft 7kts
09-Oct-18 18:28 40.512355 -122.294880 4 468ft 135kts
09-Oct-18 18:29 40.557857 -122.299065 355 2831ft 189kts
09-Oct-18 18:30 40.615615 -122.306174 355 5534ft 238kts
09-Oct-18 18:31 40.686064 -122.310253 356 8092ft 274kts
09-Oct-18 18:32 40.748689 -122.321531 323 10098ft 286kts
09-Oct-18 18:33 40.743140 -122.424331 204 11963ft 301kts
09-Oct-18 18:34 40.662809 -122.447580 188 14104ft 307kts
09-Oct-18 18:35 40.574839 -122.464518 189 15655ft 331kts
09-Oct-18 18:36 40.481590 -122.480724 189 17404ft 349kts
09-Oct-18 18:37 40.400563 -122.493353 189 18879ft 357kts
09-Oct-18 18:38 40.287185 -122.513030 189 21189ft 354kts
09-Oct-18 18:39 40.207494 -122.526351 190 22778ft 349kts
09-Oct-18 18:40 40.104255 -122.543500 189 22761ft 397kts
09-Oct-18 18:41 39.992558 -122.561820 189 23920ft 401kts
09-Oct-18 18:42 39.882059 -122.579943 188 24751ft 410kts
09-Oct-18 18:43 39.767132 -122.598495 188 24750ft 419kts
09-Oct-18 18:44 39.652367 -122.617185 188 24753ft 420kts
09-Oct-18 18:45 39.536913 -122.635449 188 24799ft 419kts
09-Oct-18 18:46 39.421959 -122.654483 188 24806ft 419kts
09-Oct-18 18:47 39.306354 -122.673330 188 24805ft 420kts
09-Oct-18 18:48 39.190707 -122.691868 188 24805ft 421kts
09-Oct-18 18:49 39.074692 -122.710514 188 24804ft 421kts
09-Oct-18 18:50 38.958847 -122.729095 188 24804ft 422kts
09-Oct-18 18:51 38.843569 -122.747424 188 24807ft 422kts
09-Oct-18 18:52 38.727682 -122.765809 188 24807ft 423kts
09-Oct-18 18:53 38.612250 -122.784128 188 24806ft 423kts
09-Oct-18 18:54 38.495488 -122.802613 188 24805ft 424kts
09-Oct-18 18:55 38.380291 -122.820783 188 24780ft 397kts
09-Oct-18 18:56 38.255543 -122.840433 187 21942ft 382kts
09-Oct-18 18:57 38.169284 -122.854434 187 19960ft 372kts
09-Oct-18 18:58 38.070534 -122.850651 149 17623ft 363kts
09-Oct-18 18:59 37.993503 -122.771643 141 15232ft 350kts
09-Oct-18 19:00 37.910341 -122.682913 141 12013ft 318kts
09-Oct-18 19:01 37.856174 -122.625558 141 10843ft 283kts
09-Oct-18 19:02 37.797564 -122.563547 141 10837ft 276kts
09-Oct-18 19:03 37.739864 -122.501851 141 10994ft 276kts
09-Oct-18 19:04 37.680791 -122.438979 141 10972ft 282kts
09-Oct-18 19:05 37.620572 -122.375186 141 10971ft 286kts
09-Oct-18 19:06 37.561230 -122.315106 143 10857ft 273kts
09-Oct-18 19:07 37.503766 -122.258180 136 9348ft 269kts
09-Oct-18 19:08 37.471064 -122.184445 118 7785ft 258kts
09-Oct-18 19:09 37.441413 -122.111062 118 6620ft 235kts
09-Oct-18 19:10 37.439440 -122.040231 34 5098ft 232kts
09-Oct-18 19:11 37.486589 -122.065370 298 4012ft 203kts
09-Oct-18 19:12 37.511585 -122.121642 297 4026ft 183kts
09-Oct-18 19:13 37.535384 -122.177319 296 3229ft 185kts
09-Oct-18 19:14 37.558840 -122.233430 297 2227ft 180kts
09-Oct-18 19:15 37.580449 -122.286642 300 1362ft 177kts
09-Oct-18 19:16 37.600520 -122.332247 302 543ft 134kts
09-Oct-18 19:17 37.616784 -122.370636 297 17ft 98kts
09-Oct-18 19:18 37.621580 -122.382438 290 17ft 0kts

Navigation Log

Ident Type
Flight plan parsing failed, navigation log unavailable